Time,TemperatureF,DewpointF,PressureIn,WindDirection,WindDirectionDegrees,WindSpeedMPH,WindSpeedGustMPH,Humidity,HourlyPrecipIn,Conditions,Clouds,dailyrainin,SoftwareType,DateUTC
2013-05-10 00:09:00,55.7,54.0,29.84,North,5,7.0,7.0,94,0.00,,,0.11,Wunderground v.1.15,2013-05-10 04:09:00,
2013-05-10 00:19:00,55.8,53.8,29.84,North,5,8.0,8.0,93,0.00,,,0.11,Wunderground v.1.15,2013-05-10 04:19:00,
2013-05-10 00:28:00,55.7,53.7,29.84,North,5,6.0,6.0,93,0.00,,,0.11,Wunderground v.1.15,2013-05-10 04:28:00,
2013-05-10 00:38:00,55.5,53.5,29.84,North,5,7.0,12.0,93,0.00,,,0.11,Wunderground v.1.15,2013-05-10 04:38:00,
2013-05-10 00:48:00,55.3,53.3,29.84,North,5,7.0,11.0,93,0.00,,,0.11,Wunderground v.1.15,2013-05-10 04:48:00,
2013-05-10 00:58:00,55.4,53.4,29.84,North,5,6.0,6.0,93,0.00,,,0.11,Wunderground v.1.15,2013-05-10 04:58:00,
2013-05-10 01:09:00,55.5,53.5,29.84,North,5,6.0,11.0,93,0.00,,,0.00,Wunderground v.1.15,2013-05-10 05:09:00,
2013-05-10 01:20:00,55.3,53.0,29.83,North,5,7.0,7.0,92,0.00,,,0.00,Wunderground v.1.15,2013-05-10 05:20:00,
2013-05-10 01:29:00,55.3,53.3,29.83,North,5,6.0,6.0,93,0.00,,,0.00,Wunderground v.1.15,2013-05-10 05:29:00,
2013-05-10 01:39:00,55.2,52.9,29.83,North,5,5.0,5.0,92,0.00,,,0.00,Wunderground v.1.15,2013-05-10 05:39:00,
2013-05-10 01:49:00,54.9,52.6,29.83,North,5,5.0,5.0,92,0.00,,,0.00,Wunderground v.1.15,2013-05-10 05:49:00,
2013-05-10 01:59:00,55.1,53.1,29.83,North,5,4.0,4.0,93,0.00,,,0.00,Wunderground v.1.15,2013-05-10 05:59:00,
2013-05-10 02:09:00,55.5,53.5,29.83,North,5,4.0,4.0,93,0.00,,,0.00,Wunderground v.1.15,2013-05-10 06:09:00,
2013-05-10 02:19:00,55.5,53.2,29.83,North,5,4.0,9.0,92,0.00,,,0.00,Wunderground v.1.15,2013-05-10 06:19:00,
2013-05-10 02:29:00,55.5,53.2,29.83,North,5,5.0,5.0,92,0.00,,,0.00,Wunderground v.1.15,2013-05-10 06:29:00,
2013-05-10 02:39:00,55.1,52.8,29.83,North,5,5.0,11.0,92,0.00,,,0.00,Wunderground v.1.15,2013-05-10 06:39:00,
2013-05-10 02:49:00,54.9,52.6,29.83,North,5,5.0,9.0,92,0.00,,,0.00,Wunderground v.1.15,2013-05-10 06:49:00,
2013-05-10 02:59:00,55.3,53.3,29.83,North,5,5.0,9.0,93,0.00,,,0.00,Wunderground v.1.15,2013-05-10 06:59:00,
2013-05-10 03:09:00,55.9,53.6,29.83,North,5,5.0,10.0,92,0.00,,,0.00,Wunderground v.1.15,2013-05-10 07:09:00,
2013-05-10 03:19:00,56.2,53.9,29.84,North,5,4.0,9.0,92,0.00,,,0.00,Wunderground v.1.15,2013-05-10 07:19:00,
2013-05-10 03:29:00,56.7,54.1,29.84,North,5,4.0,9.0,91,0.00,,,0.00,Wunderground v.1.15,2013-05-10 07:29:00,
2013-05-10 03:39:00,56.8,53.6,29.83,North,5,3.0,8.0,89,0.00,,,0.00,Wunderground v.1.15,2013-05-10 07:39:00,
2013-05-10 03:49:00,56.9,53.7,29.83,North,5,3.0,3.0,89,0.00,,,0.00,Wunderground v.1.15,2013-05-10 07:49:00,
2013-05-10 03:59:00,56.9,53.7,29.83,North,5,1.0,6.0,89,0.00,,,0.00,Wunderground v.1.15,2013-05-10 07:59:00,
2013-05-10 04:09:00,56.9,53.7,29.83,North,5,1.0,5.0,89,0.00,,,0.00,Wunderground v.1.15,2013-05-10 08:09:00,
2013-05-10 04:19:00,56.9,53.7,29.84,North,5,1.0,5.0,89,0.00,,,0.00,Wunderground v.1.15,2013-05-10 08:19:00,
2013-05-10 04:29:00,56.9,53.7,29.84,North,5,1.0,7.0,89,0.00,,,0.00,Wunderground v.1.15,2013-05-10 08:29:00,
2013-05-10 04:39:00,56.9,53.7,29.84,North,5,1.0,1.0,89,0.00,,,0.00,Wunderground v.1.15,2013-05-10 08:39:00,
2013-05-10 04:49:00,56.8,53.6,29.85,North,5,2.0,2.0,89,0.00,,,0.00,Wunderground v.1.15,2013-05-10 08:49:00,
2013-05-10 04:59:00,56.6,53.4,29.85,North,5,2.0,5.0,89,0.00,,,0.00,Wunderground v.1.15,2013-05-10 08:59:00,
2013-05-10 05:09:00,56.6,53.4,29.84,North,5,3.0,3.0,89,0.00,,,0.00,Wunderground v.1.15,2013-05-10 09:09:00,
2013-05-10 05:19:00,56.6,53.7,29.84,North,5,2.0,2.0,90,0.00,,,0.00,Wunderground v.1.15,2013-05-10 09:19:00,
2013-05-10 05:29:00,56.4,53.5,29.84,North,5,1.0,1.0,90,0.00,,,0.00,Wunderground v.1.15,2013-05-10 09:29:00,
2013-05-10 05:38:00,55.3,51.8,29.85,North,5,3.0,5.0,88,0.00,,,0.00,Wunderground v.1.15,2013-05-10 09:38:00,
2013-05-10 05:48:00,54.0,50.5,29.85,North,5,2.0,4.0,88,0.00,,,0.00,Wunderground v.1.15,2013-05-10 09:48:00,
2013-05-10 05:58:00,53.1,50.2,29.85,North,5,2.0,2.0,90,0.00,,,0.00,Wunderground v.1.15,2013-05-10 09:58:00,
2013-05-10 06:08:00,52.6,50.0,29.86,North,5,2.0,3.0,91,0.00,,,0.00,Wunderground v.1.15,2013-05-10 10:08:00,
2013-05-10 06:20:00,52.3,50.0,29.86,North,5,2.0,3.0,92,0.00,,,0.00,Wunderground v.1.15,2013-05-10 10:20:00,
2013-05-10 06:29:00,52.3,50.3,29.86,North,5,3.0,4.0,93,0.00,,,0.00,Wunderground v.1.15,2013-05-10 10:29:00,
2013-05-10 06:39:00,52.4,50.4,29.87,North,5,3.0,3.0,93,0.00,,,0.00,Wunderground v.1.15,2013-05-10 10:39:00,
2013-05-10 06:49:00,52.9,51.2,29.88,North,5,3.0,5.0,94,0.00,,,0.00,Wunderground v.1.15,2013-05-10 10:49:00,
2013-05-10 06:59:00,53.6,51.9,29.88,North,5,3.0,5.0,94,0.00,,,0.00,Wunderground v.1.15,2013-05-10 10:59:00,
2013-05-10 07:09:00,54.2,52.8,29.88,North,5,3.0,6.0,95,0.00,,,0.00,Wunderground v.1.15,2013-05-10 11:09:00,
2013-05-10 07:19:00,54.8,53.4,29.88,North,5,2.0,2.0,95,0.00,,,0.00,Wunderground v.1.15,2013-05-10 11:19:00,
2013-05-10 07:29:00,55.7,54.3,29.88,North,5,2.0,3.0,95,0.00,,,0.00,Wunderground v.1.15,2013-05-10 11:29:00,
2013-05-10 07:39:00,56.7,55.3,29.89,North,5,2.0,2.0,95,0.00,,,0.00,Wunderground v.1.15,2013-05-10 11:39:00,
2013-05-10 07:49:00,57.7,56.0,29.89,North,5,2.0,4.0,94,0.00,,,0.00,Wunderground v.1.15,2013-05-10 11:49:00,
2013-05-10 07:59:00,58.6,56.3,29.89,North,5,3.0,7.0,92,0.00,,,0.00,Wunderground v.1.15,2013-05-10 11:59:00,
2013-05-10 08:09:00,59.5,56.3,29.89,North,5,3.0,3.0,89,0.00,,,0.00,Wunderground v.1.15,2013-05-10 12:09:00,
2013-05-10 08:19:00,60.5,56.3,29.89,North,5,2.0,2.0,86,0.00,,,0.00,Wunderground v.1.15,2013-05-10 12:19:00,
2013-05-10 08:29:00,61.0,56.5,29.89,North,5,2.0,6.0,85,0.00,,,0.00,Wunderground v.1.15,2013-05-10 12:29:00,
2013-05-10 08:39:00,61.7,56.8,29.89,North,5,2.0,7.0,84,0.00,,,0.00,Wunderground v.1.15,2013-05-10 12:39:00,
2013-05-10 08:49:00,62.3,57.1,29.89,North,5,3.0,3.0,83,0.00,,,0.00,Wunderground v.1.15,2013-05-10 12:49:00,
2013-05-10 08:59:00,62.3,56.7,29.89,North,5,3.0,7.0,82,0.00,,,0.00,Wunderground v.1.15,2013-05-10 12:59:00,
2013-05-10 09:09:00,62.1,56.9,29.90,North,5,3.0,3.0,83,0.00,,,0.00,Wunderground v.1.15,2013-05-10 13:09:00,
2013-05-10 09:19:00,62.2,56.6,29.90,North,5,4.0,9.0,82,0.00,,,0.00,Wunderground v.1.15,2013-05-10 13:19:00,
2013-05-10 09:29:00,62.6,56.7,29.90,North,5,3.0,10.0,81,0.00,,,0.00,Wunderground v.1.15,2013-05-10 13:29:00,
2013-05-10 09:39:00,62.7,57.1,29.89,North,5,3.0,9.0,82,0.00,,,0.00,Wunderground v.1.15,2013-05-10 13:39:00,
2013-05-10 09:49:00,62.7,57.1,29.89,North,5,3.0,3.0,82,0.00,,,0.00,Wunderground v.1.15,2013-05-10 13:49:00,
2013-05-10 09:59:00,63.0,57.1,29.89,North,5,2.0,9.0,81,0.00,,,0.00,Wunderground v.1.15,2013-05-10 13:59:00,
2013-05-10 10:09:00,62.7,57.1,29.89,North,5,1.0,1.0,82,0.00,,,0.00,Wunderground v.1.15,2013-05-10 14:09:00,
2013-05-10 10:19:00,62.7,56.8,29.89,North,5,2.0,5.0,81,0.00,,,0.00,Wunderground v.1.15,2013-05-10 14:19:00,
2013-05-10 10:29:00,62.8,57.2,29.89,North,5,1.0,5.0,82,0.00,,,0.00,Wunderground v.1.15,2013-05-10 14:29:00,
2013-05-10 10:39:00,62.8,56.9,29.89,North,5,2.0,5.0,81,0.00,,,0.00,Wunderground v.1.15,2013-05-10 14:39:00,
2013-05-10 10:49:00,63.0,57.1,29.89,North,5,2.0,2.0,81,0.00,,,0.00,Wunderground v.1.15,2013-05-10 14:49:00,
2013-05-10 10:59:00,63.1,56.5,29.89,North,5,2.0,2.0,79,0.00,,,0.00,Wunderground v.1.15,2013-05-10 14:59:00,
2013-05-10 11:09:00,63.4,57.1,29.90,North,5,2.0,6.0,80,0.00,,,0.00,Wunderground v.1.15,2013-05-10 15:09:00,
2013-05-10 11:20:00,63.7,57.1,29.89,North,5,2.0,2.0,79,0.00,,,0.00,Wunderground v.1.15,2013-05-10 15:20:00,
2013-05-10 11:29:00,64.0,57.4,29.89,North,5,1.0,4.0,79,0.00,,,0.00,Wunderground v.1.15,2013-05-10 15:29:00,
2013-05-10 11:39:00,64.4,57.7,29.90,North,5,1.0,4.0,79,0.00,,,0.00,Wunderground v.1.15,2013-05-10 15:39:00,
2013-05-10 11:49:00,64.5,57.1,29.89,North,5,1.0,3.0,77,0.00,,,0.00,Wunderground v.1.15,2013-05-10 15:49:00,
2013-05-10 11:59:00,64.6,57.2,29.89,North,5,2.0,4.0,77,0.00,,,0.00,Wunderground v.1.15,2013-05-10 15:59:00,
2013-05-10 12:09:00,64.3,57.3,29.88,North,5,1.0,4.0,78,0.00,,,0.00,Wunderground v.1.15,2013-05-10 16:09:00,
2013-05-10 12:19:00,64.1,56.7,29.88,North,5,2.0,2.0,77,0.00,,,0.00,Wunderground v.1.15,2013-05-10 16:19:00,
2013-05-10 12:29:00,62.9,57.0,29.88,North,5,2.0,2.0,81,0.00,,,0.00,Wunderground v.1.15,2013-05-10 16:29:00,
2013-05-10 12:39:00,63.1,57.2,29.88,North,5,2.0,6.0,81,0.00,,,0.00,Wunderground v.1.15,2013-05-10 16:39:00,
2013-05-10 12:49:00,64.0,57.7,29.88,North,5,2.0,5.0,80,0.00,,,0.00,Wunderground v.1.15,2013-05-10 16:49:00,
2013-05-10 12:59:00,65.0,57.6,29.88,North,5,1.0,4.0,77,0.00,,,0.00,Wunderground v.1.15,2013-05-10 16:59:00,
2013-05-10 13:09:00,65.3,57.5,29.88,North,5,2.0,5.0,76,0.00,,,0.00,Wunderground v.1.15,2013-05-10 17:09:00,
2013-05-10 13:19:00,65.1,56.6,29.88,North,5,2.0,5.0,74,0.00,,,0.00,Wunderground v.1.15,2013-05-10 17:19:00,
2013-05-10 13:29:00,65.7,55.6,29.88,North,5,2.0,4.0,70,0.00,,,0.00,Wunderground v.1.15,2013-05-10 17:29:00,
2013-05-10 13:39:00,65.9,55.8,29.88,North,5,2.0,4.0,70,0.00,,,0.00,Wunderground v.1.15,2013-05-10 17:39:00,
2013-05-10 13:49:00,66.3,56.2,29.88,North,5,3.0,3.0,70,0.00,,,0.00,Wunderground v.1.15,2013-05-10 17:49:00,
2013-05-10 13:59:00,67.6,56.2,29.88,North,5,2.0,5.0,67,0.00,,,0.00,Wunderground v.1.15,2013-05-10 17:59:00,
2013-05-10 14:09:00,68.5,56.3,29.88,North,5,1.0,5.0,65,0.00,,,0.00,Wunderground v.1.15,2013-05-10 18:09:00,
2013-05-10 14:19:00,68.8,55.7,29.88,North,5,0.0,4.0,63,0.00,,,0.00,Wunderground v.1.15,2013-05-10 18:19:00,
2013-05-10 14:29:00,68.7,56.0,29.88,North,5,1.0,1.0,64,0.00,,,0.00,Wunderground v.1.15,2013-05-10 18:29:00,
2013-05-10 14:39:00,69.3,56.2,29.88,North,5,1.0,3.0,63,0.00,,,0.00,Wunderground v.1.15,2013-05-10 18:39:00,
2013-05-10 14:49:00,70.6,54.1,29.88,North,5,2.0,4.0,56,0.00,,,0.00,Wunderground v.1.15,2013-05-10 18:49:00,
2013-05-10 14:59:00,71.2,54.2,29.88,North,5,2.0,4.0,55,0.00,,,0.00,Wunderground v.1.15,2013-05-10 18:59:00,
2013-05-10 15:09:00,71.9,54.3,29.87,North,5,2.0,5.0,54,0.00,,,0.00,Wunderground v.1.15,2013-05-10 19:09:00,
2013-05-10 15:18:00,72.1,54.0,29.87,North,5,2.0,5.0,53,0.00,,,0.00,Wunderground v.1.15,2013-05-10 19:18:00,
2013-05-10 15:29:00,72.2,52.5,29.87,North,5,2.0,4.0,50,0.00,,,0.00,Wunderground v.1.15,2013-05-10 19:29:00,
2013-05-10 15:39:00,72.6,52.3,29.86,North,5,2.0,4.0,49,0.00,,,0.00,Wunderground v.1.15,2013-05-10 19:39:00,
2013-05-10 15:49:00,72.6,52.3,29.86,North,5,1.0,5.0,49,0.00,,,0.00,Wunderground v.1.15,2013-05-10 19:49:00,
2013-05-10 15:58:00,71.9,51.7,29.86,North,5,1.0,4.0,49,0.00,,,0.00,Wunderground v.1.15,2013-05-10 19:58:00,
2013-05-10 16:08:00,71.6,52.5,29.86,North,5,0.0,3.0,51,0.00,,,0.00,Wunderground v.1.15,2013-05-10 20:08:00,
2013-05-10 16:20:00,72.2,53.1,29.86,North,5,0.0,2.0,51,0.00,,,0.00,Wunderground v.1.15,2013-05-10 20:20:00,
2013-05-10 16:30:00,72.7,53.0,29.86,North,5,0.0,0.0,50,0.00,,,0.00,Wunderground v.1.15,2013-05-10 20:30:00,
2013-05-10 16:40:00,73.9,58.2,29.86,North,5,2.0,7.0,58,0.00,,,0.00,Wunderground v.1.15,2013-05-10 20:40:00,
2013-05-10 16:49:00,74.3,58.1,29.86,North,5,4.0,4.0,57,0.00,,,0.00,Wunderground v.1.15,2013-05-10 20:49:00,
2013-05-10 16:59:00,73.8,57.6,29.86,North,5,4.0,4.0,57,0.00,,,0.00,Wunderground v.1.15,2013-05-10 20:59:00,
2013-05-10 17:09:00,73.1,57.4,29.86,North,5,4.0,4.0,58,0.00,,,0.00,Wunderground v.1.15,2013-05-10 21:09:00,
2013-05-10 17:19:00,72.1,57.0,29.85,North,5,5.0,12.0,59,0.00,,,0.00,Wunderground v.1.15,2013-05-10 21:19:00,
2013-05-10 17:29:00,71.0,57.3,29.85,North,5,5.0,13.0,62,0.00,,,0.00,Wunderground v.1.15,2013-05-10 21:29:00,
2013-05-10 17:39:00,69.9,56.3,29.86,North,5,6.0,16.0,62,0.00,,,0.00,Wunderground v.1.15,2013-05-10 21:39:00,
2013-05-10 17:49:00,69.0,56.3,29.86,North,5,6.0,14.0,64,0.00,,,0.00,Wunderground v.1.15,2013-05-10 21:49:00,
2013-05-10 17:59:00,68.3,56.5,29.86,North,5,7.0,16.0,66,0.00,,,0.00,Wunderground v.1.15,2013-05-10 21:59:00,
2013-05-10 18:09:00,67.8,56.4,29.85,North,5,6.0,14.0,67,0.00,,,0.00,Wunderground v.1.15,2013-05-10 22:09:00,
2013-05-10 18:19:00,67.2,55.9,29.85,North,5,7.0,7.0,67,0.00,,,0.00,Wunderground v.1.15,2013-05-10 22:19:00,
2013-05-10 18:29:00,66.6,55.7,29.85,North,5,7.0,19.0,68,0.00,,,0.00,Wunderground v.1.15,2013-05-10 22:29:00,
2013-05-10 18:39:00,66.1,55.6,29.85,North,5,7.0,16.0,69,0.00,,,0.00,Wunderground v.1.15,2013-05-10 22:39:00,
2013-05-10 18:49:00,65.7,55.6,29.86,North,5,7.0,15.0,70,0.00,,,0.00,Wunderground v.1.15,2013-05-10 22:49:00,
2013-05-10 18:59:00,65.3,55.7,29.86,North,5,7.0,13.0,71,0.00,,,0.00,Wunderground v.1.15,2013-05-10 22:59:00,
2013-05-10 19:09:00,64.9,56.0,29.85,North,5,7.0,7.0,73,0.00,,,0.00,Wunderground v.1.15,2013-05-10 23:09:00,
2013-05-10 19:19:00,64.4,55.6,29.85,North,5,9.0,15.0,73,0.00,,,0.00,Wunderground v.1.15,2013-05-10 23:19:00,
2013-05-10 19:29:00,64.0,55.5,29.85,North,5,8.0,17.0,74,0.00,,,0.00,Wunderground v.1.15,2013-05-10 23:29:00,
2013-05-10 19:39:00,63.5,55.4,29.86,North,5,7.0,13.0,75,0.00,,,0.00,Wunderground v.1.15,2013-05-10 23:39:00,
2013-05-10 19:49:00,63.0,55.7,29.85,North,5,8.0,15.0,77,0.00,,,0.00,Wunderground v.1.15,2013-05-10 23:49:00,
2013-05-10 19:59:00,62.6,55.6,29.85,North,5,9.0,9.0,78,0.00,,,0.00,Wunderground v.1.15,2013-05-10 23:59:00,
2013-05-10 20:09:00,62.2,55.6,29.85,North,5,8.0,17.0,79,0.00,,,0.00,Wunderground v.1.15,2013-05-11 00:09:00,
2013-05-10 20:19:00,61.8,55.6,29.85,North,5,8.0,14.0,80,0.00,,,0.00,Wunderground v.1.15,2013-05-11 00:19:00,
2013-05-10 20:29:00,61.4,55.5,29.85,North,5,7.0,7.0,81,0.00,,,0.00,Wunderground v.1.15,2013-05-11 00:29:00,
2013-05-10 20:39:00,61.1,55.2,29.85,North,5,8.0,14.0,81,0.00,,,0.00,Wunderground v.1.15,2013-05-11 00:39:00,
2013-05-10 20:48:00,60.9,55.0,29.85,North,5,8.0,8.0,81,0.00,,,0.00,Wunderground v.1.15,2013-05-11 00:48:00,
2013-05-10 20:59:00,60.8,55.3,29.85,North,5,8.0,15.0,82,0.00,,,0.00,Wunderground v.1.15,2013-05-11 00:59:00,
2013-05-10 21:08:00,60.7,55.2,29.85,North,5,7.0,16.0,82,0.00,,,0.00,Wunderground v.1.15,2013-05-11 01:08:00,
2013-05-10 21:19:00,60.6,55.1,29.85,North,5,7.0,17.0,82,0.00,,,0.00,Wunderground v.1.15,2013-05-11 01:19:00,
2013-05-10 21:29:00,60.5,55.3,29.85,North,5,7.0,7.0,83,0.00,,,0.00,Wunderground v.1.15,2013-05-11 01:29:00,
2013-05-10 21:39:00,60.4,55.2,29.85,North,5,7.0,15.0,83,0.00,,,0.00,Wunderground v.1.15,2013-05-11 01:39:00,
2013-05-10 21:49:00,60.3,55.4,29.85,North,5,7.0,16.0,84,0.00,,,0.00,Wunderground v.1.15,2013-05-11 01:49:00,
2013-05-10 21:59:00,60.3,55.8,29.85,North,5,8.0,8.0,85,0.00,,,0.00,Wunderground v.1.15,2013-05-11 01:59:00,
2013-05-10 22:09:00,60.4,55.9,29.85,North,5,7.0,14.0,85,0.00,,,0.00,Wunderground v.1.15,2013-05-11 02:09:00,
2013-05-10 22:19:00,60.2,56.0,29.85,North,5,7.0,13.0,86,0.00,,,0.00,Wunderground v.1.15,2013-05-11 02:19:00,
2013-05-10 22:29:00,60.2,56.0,29.85,North,5,6.0,14.0,86,0.00,,,0.00,Wunderground v.1.15,2013-05-11 02:29:00,
2013-05-10 22:39:00,60.2,56.3,29.84,North,5,7.0,7.0,87,0.00,,,0.00,Wunderground v.1.15,2013-05-11 02:39:00,
2013-05-10 22:49:00,60.2,56.6,29.84,North,5,7.0,15.0,88,0.00,,,0.00,Wunderground v.1.15,2013-05-11 02:49:00,
2013-05-10 22:59:00,60.2,56.6,29.84,North,5,8.0,8.0,88,0.00,,,0.00,Wunderground v.1.15,2013-05-11 02:59:00,
2013-05-10 23:09:00,60.0,56.4,29.84,North,5,8.0,16.0,88,0.00,,,0.00,Wunderground v.1.15,2013-05-11 03:09:00,
2013-05-10 23:19:00,59.9,56.3,29.83,North,5,8.0,8.0,88,0.00,,,0.00,Wunderground v.1.15,2013-05-11 03:19:00,
2013-05-10 23:29:00,59.7,56.1,29.83,North,5,7.0,7.0,88,0.00,,,0.00,Wunderground v.1.15,2013-05-11 03:29:00,
2013-05-10 23:39:00,59.4,55.8,29.83,North,5,6.0,16.0,88,0.00,,,0.00,Wunderground v.1.15,2013-05-11 03:39:00,
2013-05-10 23:49:00,59.1,55.9,29.83,North,5,6.0,13.0,89,0.00,,,0.00,Wunderground v.1.15,2013-05-11 03:49:00,
2013-05-10 23:59:00,59.1,55.9,29.83,North,5,6.0,14.0,89,0.00,,,0.00,Wunderground v.1.15,2013-05-11 03:59:00,